Time;durP1;ratioP1;P1;durP2;ratioP2;P2;SDS_P1;SDS_P2;PMS_P1;PMS_P2;Temp;Humidity;BMP_temperature;BMP_pressure;BME280_temperature;BME280_humidity;BME280_pressure;Samples;Min_cycle;Max_cycle;Signal;HPM_P1;HPM_P2
2023/09/01 06:44:40;;;;;;;22.90;2.67;;;15.30;66.60;;;;;;6313862;22;20083;-79
2023/09/01 06:47:07;;;;;;;10.35;1.77;;;15.30;65.70;;;;;;6306107;22;20049;-77
2023/09/01 06:49:34;;;;;;;18.38;2.13;;;15.30;65.60;;;;;;6333555;22;20010;-75
2023/09/01 06:52:02;;;;;;;10.73;2.08;;;15.30;63.60;;;;;;6333559;22;20002;-77
2023/09/01 06:54:29;;;;;;;15.43;1.83;;;15.30;63.70;;;;;;6334481;22;20311;-78
2023/09/01 06:56:56;;;;;;;21.98;2.72;;;15.20;64.40;;;;;;6334175;22;20489;-78
2023/09/01 06:59:23;;;;;;;8.73;1.88;;;15.20;65.60;;;;;;6306408;22;20073;-77
2023/09/01 07:01:51;;;;;;;15.40;2.72;;;15.20;66.50;;;;;;6334208;22;20465;-75
2023/09/01 07:04:18;;;;;;;10.13;2.30;;;15.20;66.30;;;;;;6333838;22;19998;-75
2023/09/01 07:06:45;;;;;;;11.70;2.30;;;15.20;66.40;;;;;;6332035;22;20030;-75
2023/09/01 07:09:12;;;;;;;12.40;2.10;;;15.10;65.30;;;;;;6333467;22;20010;-77
2023/09/01 07:11:40;;;;;;;12.02;2.08;;;15.10;64.70;;;;;;6335457;22;20006;-78
2023/09/01 07:14:07;;;;;;;11.60;2.22;;;15.10;64.60;;;;;;6334039;22;19999;-76
2023/09/01 07:16:34;;;;;;;15.05;2.13;;;15.10;64.60;;;;;;6332670;22;20015;-76
2023/09/01 07:19:01;;;;;;;54.80;4.07;;;15.10;62.60;;;;;;6332985;22;20014;-76
2023/09/01 07:21:29;;;;;;;11.73;2.13;;;15.00;62.80;;;;;;6332487;22;20010;-76
2023/09/01 07:23:56;;;;;;;7.50;1.85;;;15.00;63.50;;;;;;6334179;22;20437;-76
2023/09/01 07:26:23;;;;;;;13.75;1.70;;;15.00;62.30;;;;;;6332653;22;20011;-76
2023/09/01 07:28:50;;;;;;;8.60;1.88;;;15.00;62.30;;;;;;6333938;22;20030;-78
2023/09/01 07:31:18;;;;;;;10.27;1.90;;;15.00;63.00;;;;;;6331438;22;20034;-77
2023/09/01 07:33:45;;;;;;;8.88;1.63;;;15.00;63.30;;;;;;6280194;22;19994;-79
2023/09/01 07:36:12;;;;;;;6.82;1.63;;;15.00;63.80;;;;;;6336082;22;20048;-79
2023/09/01 07:38:39;;;;;;;8.60;1.60;;;15.00;64.10;;;;;;6337995;22;20079;-82
2023/09/01 07:41:09;;;;;;;11.65;1.88;;;15.00;64.40;;;;;;6333068;22;20006;-76
2023/09/01 07:43:37;;;;;;;11.15;2.47;;;14.90;65.00;;;;;;6333474;22;20030;-77
2023/09/01 07:46:04;;;;;;;9.13;1.90;;;14.90;64.70;;;;;;6333836;22;20090;-77
2023/09/01 07:48:31;;;;;;;10.00;2.00;;;14.90;65.50;;;;;;6333249;22;20037;-77
2023/09/01 07:50:58;;;;;;;9.13;1.50;;;14.90;65.20;;;;;;6334090;22;20009;-76
2023/09/01 07:53:25;;;;;;;13.60;2.08;;;14.90;64.80;;;;;;6334539;22;20435;-77
2023/09/01 07:55:53;;;;;;;13.38;1.83;;;14.90;64.60;;;;;;6335915;22;19995;-78
2023/09/01 07:58:20;;;;;;;10.23;2.03;;;14.90;65.20;;;;;;6333602;22;20033;-79
2023/09/01 08:00:47;;;;;;;8.40;2.10;;;14.80;65.60;;;;;;6306711;22;19999;-77
2023/09/01 08:03:16;;;;;;;10.85;2.08;;;14.80;65.30;;;;;;6280705;22;20433;-79
2023/09/01 08:05:43;;;;;;;9.80;2.03;;;14.80;66.30;;;;;;6330930;22;20330;-79
2023/09/01 08:08:13;;;;;;;9.25;1.73;;;14.80;65.40;;;;;;6333039;22;20376;-78
2023/09/01 08:10:40;;;;;;;9.30;1.73;;;14.80;65.30;;;;;;6333301;22;20011;-77
2023/09/01 08:13:08;;;;;;;6.72;1.98;;;14.80;65.80;;;;;;6333542;22;20360;-77
2023/09/01 08:15:35;;;;;;;11.23;1.95;;;14.80;66.30;;;;;;6331590;22;20342;-79
2023/09/01 08:18:03;;;;;;;8.18;1.90;;;14.70;67.20;;;;;;6334006;22;20006;-79
2023/09/01 08:20:30;;;;;;;13.48;2.60;;;14.80;68.50;;;;;;6333992;22;20429;-76
2023/09/01 08:22:57;;;;;;;14.55;2.80;;;14.80;69.00;;;;;;6306615;22;20009;-79
2023/09/01 08:25:24;;;;;;;18.75;3.17;;;14.70;69.40;;;;;;6332444;22;20425;-73
2023/09/01 08:27:52;;;;;;;8.90;1.90;;;14.70;67.50;;;;;;6306196;22;20014;-79
2023/09/01 08:30:19;;;;;;;11.70;2.17;;;14.70;66.20;;;;;;6334160;22;19995;-79
2023/09/01 08:32:46;;;;;;;10.65;2.17;;;14.70;65.90;;;;;;6306926;22;20006;-79
2023/09/01 08:35:14;;;;;;;14.27;2.67;;;14.70;66.50;;;;;;6336178;22;20006;-75
2023/09/01 08:37:41;;;;;;;8.07;1.67;;;14.70;67.00;;;;;;6335126;22;20007;-79
2023/09/01 08:40:11;;;;;;;12.23;2.25;;;14.70;67.40;;;;;;6335540;22;20003;-78
2023/09/01 08:42:44;;;;;;;;;;;14.70;67.30;;;;;;6309078;22;20092;-77
2023/09/01 08:45:12;;;;;;;13.85;2.53;;;14.70;67.10;;;;;;6335393;22;19910;-77
2023/09/01 08:47:48;;;;;;;15.23;2.38;;;14.70;67.40;;;;;;6334883;22;20007;-78
2023/09/01 08:50:17;;;;;;;13.68;2.10;;;14.70;67.50;;;;;;6307512;22;20009;-75
2023/09/01 08:52:48;;;;;;;10.23;2.10;;;14.70;67.30;;;;;;6307321;22;20003;-77
2023/09/01 08:55:17;;;;;;;13.32;2.08;;;14.80;66.80;;;;;;6308482;22;19999;-75
2023/09/01 08:57:47;;;;;;;11.32;2.20;;;14.80;66.80;;;;;;6281766;22;20495;-77
2023/09/01 09:00:15;;;;;;;14.30;2.13;;;14.80;67.00;;;;;;6335487;22;20006;-76
2023/09/01 09:02:43;;;;;;;11.00;1.88;;;14.80;67.50;;;;;;6307098;22;20003;-75
2023/09/01 09:05:14;;;;;;;12.95;2.38;;;14.80;67.50;;;;;;6307537;22;20030;-77
2023/09/01 09:07:41;;;;;;;11.30;2.10;;;14.90;67.60;;;;;;6305383;22;20346;-74
2023/09/01 09:10:09;;;;;;;10.40;2.33;;;14.80;66.30;;;;;;6307741;22;20081;-77
2023/09/01 09:12:43;;;;;;;17.10;2.08;;;14.80;64.30;;;;;;6334164;22;20007;-75
2023/09/01 09:15:15;;;;;;;10.10;2.20;;;14.90;64.50;;;;;;6335510;22;20003;-74
2023/09/01 09:17:44;;;;;;;11.45;2.67;;;14.90;63.90;;;;;;6309159;22;20604;-74
2023/09/01 09:20:12;;;;;;;9.80;2.08;;;14.90;64.50;;;;;;6307967;22;20052;-76
2023/09/01 09:22:56;;;;;;;12.25;2.35;;;15.00;64.80;;;;;;6333626;22;20002;-76
2023/09/01 09:25:36;;;;;;;10.65;2.50;;;14.90;65.60;;;;;;6305774;22;20090;-78
2023/09/01 09:28:16;;;;;;;11.70;2.25;;;14.90;65.80;;;;;;6334457;22;20014;-77
2023/09/01 09:30:49;;;;;;;;;;;14.90;64.80;;;;;;6309594;22;20006;-79
2023/09/01 09:33:17;;;;;;;9.95;2.20;;;14.90;64.60;;;;;;6307721;22;20001;-78
2023/09/01 09:35:52;;;;;;;6.57;1.83;;;14.90;64.80;;;;;;6306425;22;20342;-76
2023/09/01 09:38:19;;;;;;;10.23;2.05;;;14.90;65.30;;;;;;6306311;22;20092;-74
2023/09/01 09:41:00;;;;;;;11.25;2.50;;;14.90;65.10;;;;;;6307082;22;20002;-76
2023/09/01 09:43:27;;;;;;;10.82;2.38;;;14.90;64.80;;;;;;6308250;22;20007;-78
2023/09/01 09:45:55;;;;;;;11.85;1.98;;;14.90;65.20;;;;;;6334792;22;20089;-75
2023/09/01 09:48:22;;;;;;;14.13;2.05;;;14.90;65.40;;;;;;6307596;22;20017;-79
2023/09/01 09:50:52;;;;;;;16.27;2.85;;;14.90;65.80;;;;;;6306701;22;20078;-79
2023/09/01 09:53:22;;;;;;;14.43;2.42;;;14.90;66.30;;;;;;6307443;22;20014;-78
2023/09/01 09:55:53;;;;;;;13.73;2.92;;;14.90;67.00;;;;;;6307913;22;19999;-77
2023/09/01 09:58:22;;;;;;;7.78;2.10;;;14.90;66.50;;;;;;6282315;22;20453;-77
2023/09/01 10:00:58;;;;;;;11.00;2.13;;;14.90;66.90;;;;;;6280720;22;20010;-80
2023/09/01 10:03:29;;;;;;;9.45;2.28;;;14.90;67.50;;;;;;6307271;22;20010;-81
2023/09/01 10:05:56;;;;;;;11.63;2.33;;;14.80;65.80;;;;;;6304983;22;19999;-75
2023/09/01 10:08:24;;;;;;;10.25;2.17;;;14.90;65.40;;;;;;6306715;22;20036;-79
2023/09/01 10:10:51;;;;;;;10.05;1.90;;;14.90;65.90;;;;;;6306617;22;20003;-76
2023/09/01 10:13:18;;;;;;;10.55;1.90;;;14.90;65.50;;;;;;6334855;22;20006;-77
2023/09/01 10:15:46;;;;;;;7.55;1.98;;;14.90;66.40;;;;;;6282160;22;20010;-84
2023/09/01 10:18:13;;;;;;;14.00;2.22;;;14.80;66.40;;;;;;6282226;22;20078;-78
2023/09/01 10:20:42;;;;;;;11.15;2.17;;;14.90;66.90;;;;;;6304339;22;20083;-76
2023/09/01 10:23:10;;;;;;;11.48;2.33;;;14.90;67.10;;;;;;6308042;22;20002;-77
2023/09/01 10:25:37;;;;;;;7.72;2.00;;;14.80;67.60;;;;;;6306230;22;20113;-78
2023/09/01 10:28:07;;;;;;;10.20;1.90;;;14.80;67.60;;;;;;6306572;22;20048;-76
2023/09/01 10:30:38;;;;;;;12.05;2.65;;;14.70;67.10;;;;;;6333405;22;20026;-73
2023/09/01 10:33:38;;;;;;;10.70;1.95;;;14.70;67.80;;;;;;6333860;22;20351;-73
2023/09/01 10:36:06;;;;;;;8.30;1.73;;;14.70;68.60;;;;;;6249864;22;20079;-73
2023/09/01 10:38:37;;;;;;;11.05;2.03;;;14.70;69.30;;;;;;6279158;22;20057;-73
2023/09/01 10:41:04;;;;;;;9.13;1.77;;;14.60;69.70;;;;;;6306867;22;20006;-75
2023/09/01 10:43:35;;;;;;;9.52;2.13;;;14.60;69.70;;;;;;6305707;22;20002;-74
2023/09/01 10:46:14;;;;;;;9.00;1.73;;;14.50;70.00;;;;;;6333583;22;20030;-73
2023/09/01 10:49:00;;;;;;;9.30;1.67;;;14.50;68.70;;;;;;6333696;22;19999;-74
2023/09/01 10:51:33;;;;;;;10.77;1.85;;;14.50;68.70;;;;;;6334180;22;20002;-75
2023/09/01 10:54:01;;;;;;;9.50;2.45;;;14.50;68.40;;;;;;6306920;22;20006;-74
2023/09/01 10:56:29;;;;;;;9.45;2.13;;;14.50;68.50;;;;;;6334012;22;20014;-73
2023/09/01 10:58:59;;;;;;;11.75;2.22;;;14.40;68.30;;;;;;6305889;22;20718;-75
2023/09/01 11:01:29;;;;;;;;;;;14.50;68.70;;;;;;6305712;22;20018;-75
2023/09/01 11:04:17;;;;;;;8.88;1.90;;;14.50;69.00;;;;;;6334153;22;19902;-76
2023/09/01 11:07:00;;;;;;;12.80;1.85;;;14.40;69.10;;;;;;6308167;22;20386;-75
2023/09/01 11:09:33;;;;;;;9.20;2.47;;;14.40;69.30;;;;;;6306480;22;20037;-74
2023/09/01 11:12:03;;;;;;;14.57;2.53;;;14.40;69.40;;;;;;6333249;22;20002;-74
2023/09/01 11:14:31;;;;;;;10.57;2.30;;;14.30;69.70;;;;;;6306278;22;20486;-73
2023/09/01 11:17:05;;;;;;;16.05;2.60;;;14.30;69.80;;;;;;6306244;22;20037;-75
2023/09/01 11:19:52;;;;;;;8.60;1.77;;;14.30;70.10;;;;;;6334391;22;20370;-74
2023/09/01 11:22:19;;;;;;;7.85;1.52;;;14.20;70.20;;;;;;6333995;22;20014;-75
2023/09/01 11:24:46;;;;;;;7.43;1.85;;;14.20;70.60;;;;;;6305868;22;20006;-73
2023/09/01 11:27:14;;;;;;;7.95;2.05;;;14.20;70.10;;;;;;6333698;22;20372;-78
2023/09/01 11:29:41;;;;;;;9.98;1.90;;;14.20;69.80;;;;;;6334110;22;19999;-77
2023/09/01 11:32:08;;;;;;;9.73;1.83;;;14.20;69.60;;;;;;6306573;22;20002;-76
2023/09/01 11:34:39;;;;;;;7.60;1.80;;;14.20;69.60;;;;;;6334065;22;20413;-76
2023/09/01 11:37:06;;;;;;;10.90;1.92;;;14.20;69.50;;;;;;6306834;22;20002;-76
2023/09/01 11:39:33;;;;;;;10.15;2.10;;;14.20;69.90;;;;;;6309595;22;20422;-76
2023/09/01 11:42:01;;;;;;;13.27;2.53;;;14.20;69.60;;;;;;6309781;22;20074;-76
2023/09/01 11:44:28;;;;;;;11.98;2.00;;;14.20;69.20;;;;;;6283792;22;20445;-76
2023/09/01 11:46:56;;;;;;;8.32;2.38;;;14.20;68.40;;;;;;6310008;22;20021;-75
2023/09/01 11:49:26;;;;;;;16.88;2.97;;;14.20;68.60;;;;;;6309608;22;19999;-75
2023/09/01 11:51:54;;;;;;;9.55;2.30;;;14.20;69.40;;;;;;6309600;22;20726;-76
2023/09/01 11:54:21;;;;;;;11.07;2.50;;;14.20;69.40;;;;;;6309601;22;20139;-77
2023/09/01 11:56:48;;;;;;;8.38;2.00;;;14.20;69.20;;;;;;6310187;22;20077;-76
2023/09/01 11:59:20;;;;;;;10.18;2.05;;;14.20;69.70;;;;;;6309624;22;20001;-76
2023/09/01 12:01:47;;;;;;;13.18;2.50;;;14.20;70.10;;;;;;6337473;22;20418;-76
2023/09/01 12:04:15;;;;;;;8.30;1.92;;;14.20;70.50;;;;;;6284460;22;20074;-76
2023/09/01 12:06:45;;;;;;;6.82;1.70;;;14.20;70.90;;;;;;6337170;22;20010;-76
2023/09/01 12:09:16;;;;;;;10.82;2.95;;;14.20;71.10;;;;;;6337663;22;19999;-75
2023/09/01 12:11:57;;;;;;;7.95;1.70;;;14.20;72.70;;;;;;6337902;22;20014;-76
2023/09/01 12:14:31;;;;;;;13.75;2.30;;;14.10;74.00;;;;;;6338388;22;20314;-76
2023/09/01 12:16:59;;;;;;;12.48;1.98;;;14.00;74.60;;;;;;6338900;22;20087;-76
2023/09/01 12:19:27;;;;;;;8.65;2.30;;;14.00;74.90;;;;;;6311772;22;19999;-76
2023/09/01 12:21:56;;;;;;;7.45;1.83;;;14.00;74.20;;;;;;6310936;22;20002;-76
2023/09/01 12:24:23;;;;;;;10.18;1.80;;;14.00;74.40;;;;;;6311679;22;20321;-76
2023/09/01 12:26:50;;;;;;;8.40;1.67;;;13.90;75.40;;;;;;6310921;22;20006;-76
2023/09/01 12:29:18;;;;;;;9.27;1.60;;;13.90;76.90;;;;;;6310765;22;20468;-76
2023/09/01 12:31:45;;;;;;;5.78;1.55;;;13.80;77.10;;;;;;6310883;22;20349;-76
2023/09/01 12:34:12;;;;;;;8.75;1.70;;;13.70;77.10;;;;;;6338746;22;20003;-76
2023/09/01 12:36:39;;;;;;;10.02;2.10;;;13.70;77.50;;;;;;6338823;22;20052;-76
2023/09/01 12:39:07;;;;;;;3.65;1.40;;;13.70;76.70;;;;;;6338809;22;20326;-76
2023/09/01 12:41:34;;;;;;;7.75;2.20;;;13.70;75.60;;;;;;6338193;22;20017;-76
2023/09/01 12:44:02;;;;;;;6.43;1.60;;;13.70;75.30;;;;;;6338449;22;20037;-76
2023/09/01 12:46:29;;;;;;;9.60;1.73;;;13.70;75.40;;;;;;6338314;22;20099;-77
2023/09/01 12:48:56;;;;;;;8.60;1.80;;;13.70;75.30;;;;;;6338084;22;20074;-77
2023/09/01 12:51:23;;;;;;;7.13;1.73;;;13.70;75.50;;;;;;6337640;22;20421;-77
2023/09/01 12:53:51;;;;;;;7.57;1.85;;;13.70;75.80;;;;;;6337939;22;20022;-77
2023/09/01 12:56:19;;;;;;;14.75;1.85;;;13.70;75.70;;;;;;6311155;22;20018;-76
2023/09/01 12:58:46;;;;;;;11.63;2.00;;;13.70;75.50;;;;;;6338072;22;19999;-76
2023/09/01 13:01:13;;;;;;;7.30;1.83;;;13.70;76.10;;;;;;6310289;22;20121;-77
2023/09/01 13:03:40;;;;;;;12.52;2.05;;;13.70;76.90;;;;;;6338782;22;20002;-76
2023/09/01 13:06:11;;;;;;;7.95;1.55;;;13.70;77.90;;;;;;6338358;22;20065;-77
2023/09/01 13:08:38;;;;;;;8.32;2.25;;;13.60;78.00;;;;;;6338204;22;20010;-76
2023/09/01 13:11:14;;;;;;;5.28;1.48;;;13.50;78.30;;;;;;6337789;22;20029;-77
2023/09/01 13:13:41;;;;;;;7.82;1.50;;;13.50;77.30;;;;;;6337104;22;19999;-76
2023/09/01 13:16:11;;;;;;;11.65;1.85;;;13.40;77.20;;;;;;6285559;22;19994;-76
2023/09/01 13:18:40;;;;;;;6.75;1.33;;;13.40;76.40;;;;;;6286740;22;20018;-75
2023/09/01 13:21:08;;;;;;;11.10;1.63;;;13.40;76.80;;;;;;6337968;22;19995;-76
2023/09/01 13:23:35;;;;;;;12.15;1.80;;;13.30;76.50;;;;;;6338643;22;20005;-77
2023/09/01 13:26:02;;;;;;;3.72;1.20;;;13.30;78.10;;;;;;6338452;22;20026;-76
2023/09/01 13:28:29;;;;;;;4.90;1.30;;;13.20;79.60;;;;;;6337193;22;20341;-76
2023/09/01 13:30:58;;;;;;;6.68;1.60;;;13.20;80.00;;;;;;6310771;22;19999;-77
2023/09/01 13:33:25;;;;;;;6.43;1.27;;;13.10;80.80;;;;;;6310819;22;20002;-77
2023/09/01 13:35:54;;;;;;;10.35;1.73;;;13.10;80.50;;;;;;6338371;22;20334;-76
2023/09/01 13:38:21;;;;;;;8.68;1.65;;;13.10;79.80;;;;;;6338131;22;19995;-76
2023/09/01 13:40:55;;;;;;;12.63;2.03;;;13.10;80.30;;;;;;6338082;22;20364;-76
2023/09/01 13:43:22;;;;;;;7.82;1.75;;;13.10;80.30;;;;;;6337837;22;19995;-76
2023/09/01 13:45:49;;;;;;;7.18;1.30;;;13.10;79.90;;;;;;6338086;22;20027;-76
2023/09/01 13:48:16;;;;;;;9.77;2.17;;;13.10;81.00;;;;;;6336977;22;20010;-76
2023/09/01 13:50:45;;;;;;;9.88;2.13;;;13.10;80.20;;;;;;6337955;22;20417;-77
2023/09/01 13:53:12;;;;;;;9.77;1.83;;;13.10;80.30;;;;;;6338156;22;20002;-76
2023/09/01 13:55:39;;;;;;;10.27;2.28;;;13.10;80.70;;;;;;6310591;22;20053;-76
2023/09/01 13:58:06;;;;;;;15.13;2.45;;;13.20;80.20;;;;;;6337244;22;20060;-76
2023/09/01 14:00:34;;;;;;;7.13;1.58;;;13.10;79.10;;;;;;6338266;22;20010;-76
2023/09/01 14:03:01;;;;;;;9.50;2.08;;;13.20;79.30;;;;;;6338229;22;20003;-76
2023/09/01 14:05:28;;;;;;;8.68;1.73;;;13.10;78.80;;;;;;6338025;22;20303;-76
2023/09/01 14:07:55;;;;;;;5.90;1.20;;;13.20;78.90;;;;;;6337546;22;20006;-76
2023/09/01 14:10:22;;;;;;;5.55;1.38;;;13.20;78.20;;;;;;6309842;22;20048;-76
2023/09/01 14:12:50;;;;;;;10.27;1.95;;;13.20;78.10;;;;;;6310523;22;20017;-77
2023/09/01 14:15:17;;;;;;;8.07;1.73;;;13.10;77.80;;;;;;6338225;22;20408;-76
2023/09/01 14:17:45;;;;;;;6.60;1.55;;;13.10;78.30;;;;;;6337957;22;20033;-76
2023/09/01 14:20:12;;;;;;;10.20;2.08;;;13.00;77.90;;;;;;6309548;22;20372;-76
2023/09/01 14:22:39;;;;;;;8.13;2.17;;;13.00;78.40;;;;;;6337871;22;20064;-77
2023/09/01 14:25:07;;;;;;;6.60;2.03;;;13.00;78.00;;;;;;6337368;22;20029;-77
2023/09/01 14:27:34;;;;;;;10.68;1.75;;;13.00;77.20;;;;;;6337473;22;20013;-76
2023/09/01 14:30:02;;;;;;;8.52;1.70;;;13.10;77.00;;;;;;6336855;22;20002;-77
2023/09/01 14:32:29;;;;;;;8.32;1.88;;;13.00;76.20;;;;;;6337504;22;20013;-77
2023/09/01 14:34:56;;;;;;;9.63;1.73;;;13.10;76.50;;;;;;6337111;22;19999;-77
2023/09/01 14:37:23;;;;;;;6.65;1.52;;;13.10;75.60;;;;;;6337081;22;20078;-77
2023/09/01 14:39:51;;;;;;;5.93;1.73;;;13.20;75.70;;;;;;6336910;22;20425;-77
2023/09/01 14:42:18;;;;;;;11.63;2.53;;;13.20;75.60;;;;;;6337539;22;20014;-77
2023/09/01 14:44:45;;;;;;;11.85;1.90;;;13.20;75.00;;;;;;6337151;22;20315;-76
2023/09/01 14:47:12;;;;;;;6.50;1.90;;;13.20;75.90;;;;;;6337094;22;20337;-77
2023/09/01 14:49:39;;;;;;;6.75;1.77;;;13.20;75.10;;;;;;6309970;22;20010;-77
2023/09/01 14:52:07;;;;;;;9.90;2.38;;;13.10;74.90;;;;;;6337649;22;20048;-77
2023/09/01 14:54:34;;;;;;;7.97;1.70;;;13.10;74.90;;;;;;6336101;22;20422;-77
2023/09/01 14:57:01;;;;;;;8.73;1.67;;;13.10;74.70;;;;;;6309650;22;20009;-77
2023/09/01 14:59:28;;;;;;;8.10;1.65;;;13.00;74.80;;;;;;6309632;22;20372;-77
2023/09/01 15:01:56;;;;;;;9.50;1.85;;;13.10;74.70;;;;;;6337807;22;20033;-77
2023/09/01 15:04:23;;;;;;;10.75;1.98;;;13.00;74.70;;;;;;6337878;22;20006;-77
2023/09/01 15:06:51;;;;;;;5.45;1.70;;;13.00;74.50;;;;;;6310047;22;20007;-77
2023/09/01 15:09:19;;;;;;;8.70;1.92;;;12.90;74.20;;;;;;6336344;22;20014;-76
2023/09/01 15:11:46;;;;;;;5.70;1.90;;;12.80;74.20;;;;;;6337029;22;20056;-77
2023/09/01 15:14:13;;;;;;;7.93;1.80;;;12.80;73.80;;;;;;6337248;22;20011;-76
2023/09/01 15:16:40;;;;;;;9.25;1.85;;;12.70;73.70;;;;;;6309778;22;20385;-76
2023/09/01 15:19:08;;;;;;;13.50;2.33;;;12.70;73.80;;;;;;6335794;22;19995;-77
2023/09/01 15:21:35;;;;;;;8.85;1.77;;;12.70;73.50;;;;;;6336695;22;20006;-77
2023/09/01 15:24:02;;;;;;;8.93;1.88;;;12.70;73.80;;;;;;6337183;22;20010;-77
2023/09/01 15:26:29;;;;;;;11.55;2.33;;;12.70;73.70;;;;;;6337414;22;20021;-77
2023/09/01 15:28:56;;;;;;;8.57;1.83;;;12.60;73.60;;;;;;6336232;22;20003;-77
2023/09/01 15:31:24;;;;;;;10.93;1.90;;;12.60;73.70;;;;;;6337370;22;20006;-77
2023/09/01 15:33:51;;;;;;;8.65;1.83;;;12.60;73.70;;;;;;6337498;22;20078;-76
2023/09/01 15:36:18;;;;;;;5.03;1.63;;;12.60;73.70;;;;;;6309681;22;20003;-77
2023/09/01 15:38:47;;;;;;;8.90;1.88;;;12.60;73.40;;;;;;6309023;22;20033;-77
2023/09/01 15:41:14;;;;;;;9.13;1.65;;;12.60;73.30;;;;;;6336950;22;20003;-77
2023/09/01 15:43:41;;;;;;;5.20;1.50;;;12.60;73.20;;;;;;6339547;22;20323;-77
2023/09/01 15:46:11;;;;;;;5.45;2.10;;;12.60;73.10;;;;;;6281180;22;20089;-77
2023/09/01 15:48:39;;;;;;;10.50;2.05;;;12.60;73.30;;;;;;6307488;22;20122;-77
2023/09/01 15:51:09;;;;;;;10.30;1.90;;;12.50;73.10;;;;;;6308085;22;20031;-76
2023/09/01 15:53:36;;;;;;;6.18;1.92;;;12.50;73.30;;;;;;6307870;22;20106;-76
2023/09/01 15:56:04;;;;;;;8.52;2.03;;;12.50;72.90;;;;;;6307942;22;20368;-77
2023/09/01 15:58:31;;;;;;;9.10;2.22;;;12.50;73.60;;;;;;6307388;22;20421;-76
2023/09/01 16:00:59;;;;;;;5.72;1.98;;;12.50;73.70;;;;;;6280651;22;19999;-77
2023/09/01 16:03:27;;;;;;;9.35;2.40;;;12.40;74.50;;;;;;6255654;22;19999;-76
2023/09/01 16:05:54;;;;;;;7.03;2.15;;;12.30;74.50;;;;;;6307755;22;20418;-76
2023/09/01 16:08:22;;;;;;;7.80;2.15;;;12.30;74.20;;;;;;6307401;22;20011;-77
2023/09/01 16:10:49;;;;;;;14.57;2.30;;;12.30;74.70;;;;;;6280649;22;19991;-76
2023/09/01 16:13:16;;;;;;;8.93;2.33;;;12.30;74.80;;;;;;6308385;22;20444;-76
2023/09/01 16:15:43;;;;;;;6.72;2.08;;;12.20;75.00;;;;;;6307599;22;20003;-76
2023/09/01 16:18:10;;;;;;;8.15;2.17;;;12.20;74.10;;;;;;6307096;22;20003;-76
2023/09/01 16:20:38;;;;;;;9.07;2.08;;;12.20;74.10;;;;;;6280660;22;20414;-76
2023/09/01 16:23:05;;;;;;;7.30;2.13;;;12.20;73.90;;;;;;6308052;22;20086;-76
2023/09/01 16:25:34;;;;;;;10.32;2.00;;;12.20;74.20;;;;;;6307798;22;19999;-76
2023/09/01 16:28:02;;;;;;;6.75;2.22;;;12.10;74.00;;;;;;6307314;22;20097;-76
2023/09/01 16:30:29;;;;;;;9.60;2.03;;;12.00;74.20;;;;;;6307338;22;20002;-76
2023/09/01 16:32:56;;;;;;;8.63;2.30;;;12.00;74.40;;;;;;6307807;22;20010;-77
2023/09/01 16:35:23;;;;;;;12.40;2.40;;;11.90;74.20;;;;;;6307922;22;20002;-76
2023/09/01 16:37:51;;;;;;;7.82;2.05;;;11.80;74.40;;;;;;6280387;22;20300;-76
2023/09/01 16:40:22;;;;;;;12.18;2.67;;;11.80;74.70;;;;;;6279456;22;20015;-76
2023/09/01 16:42:51;;;;;;;12.95;2.45;;;11.80;74.60;;;;;;6281258;22;20003;-76
2023/09/01 16:45:18;;;;;;;8.77;2.05;;;11.80;75.30;;;;;;6279548;22;20319;-76
2023/09/01 16:47:45;;;;;;;8.63;2.20;;;11.70;75.80;;;;;;6280634;22;20011;-76
2023/09/01 16:50:13;;;;;;;7.65;2.10;;;11.70;75.70;;;;;;6279984;22;20031;-76
2023/09/01 16:52:40;;;;;;;11.73;2.28;;;11.70;75.80;;;;;;6307307;22;20052;-76
2023/09/01 16:55:08;;;;;;;10.70;1.95;;;11.70;76.00;;;;;;6279806;22;19999;-77
2023/09/01 16:57:36;;;;;;;8.15;2.30;;;11.70;76.70;;;;;;6307916;22;20003;-76
2023/09/01 17:00:07;;;;;;;6.75;2.38;;;11.70;76.30;;;;;;6307086;22;19999;-76
2023/09/01 17:02:34;;;;;;;8.32;1.65;;;11.60;76.10;;;;;;6307352;22;20365;-77
2023/09/01 17:05:01;;;;;;;9.13;2.08;;;11.60;76.20;;;;;;6307272;22;20011;-76
2023/09/01 17:07:29;;;;;;;9.75;2.10;;;11.60;76.30;;;;;;6306287;22;20015;-76
2023/09/01 17:10:05;;;;;;;8.25;2.22;;;11.50;76.00;;;;;;6306867;22;20330;-77
2023/09/01 17:12:33;;;;;;;6.85;1.92;;;11.60;77.00;;;;;;6280187;22;20007;-76
2023/09/01 17:15:01;;;;;;;6.13;1.73;;;11.50;76.10;;;;;;6280251;22;20003;-77
2023/09/01 17:17:28;;;;;;;7.82;2.15;;;11.40;76.50;;;;;;6279465;22;20010;-76
2023/09/01 17:19:55;;;;;;;7.93;2.15;;;11.40;76.40;;;;;;6253647;22;20038;-77
2023/09/01 17:22:22;;;;;;;9.10;2.08;;;11.30;76.70;;;;;;6254680;22;20026;-76
2023/09/01 17:24:50;;;;;;;5.00;1.63;;;11.30;76.80;;;;;;6307308;22;20023;-76
2023/09/01 17:27:17;;;;;;;8.35;2.25;;;11.30;76.20;;;;;;6279721;22;20011;-76
2023/09/01 17:29:44;;;;;;;10.25;2.05;;;11.30;76.20;;;;;;6306404;22;19999;-76
2023/09/01 17:32:11;;;;;;;5.70;1.70;;;11.30;76.70;;;;;;6307358;22;20026;-76
2023/09/01 17:34:38;;;;;;;12.75;1.88;;;11.30;76.40;;;;;;6307704;22;19995;-76
2023/09/01 17:37:07;;;;;;;8.55;2.15;;;11.30;75.90;;;;;;6306726;22;20000;-77
2023/09/01 17:39:35;;;;;;;5.22;1.77;;;11.30;75.40;;;;;;6306939;22;20003;-76
2023/09/01 17:42:03;;;;;;;6.10;1.65;;;11.30;75.10;;;;;;6280001;22;20014;-76
2023/09/01 17:44:30;;;;;;;7.95;1.23;;;11.30;75.20;;;;;;6305783;22;20325;-76
2023/09/01 17:46:58;;;;;;;6.50;1.80;;;11.30;75.00;;;;;;6333523;22;20019;-76
2023/09/01 17:49:26;;;;;;;10.40;2.30;;;11.30;75.20;;;;;;6334696;22;20002;-76
2023/09/01 17:51:53;;;;;;;8.73;1.92;;;11.30;75.50;;;;;;6307339;22;20003;-76
2023/09/01 17:54:21;;;;;;;6.63;1.52;;;11.30;75.00;;;;;;6337482;22;20018;-76
2023/09/01 17:56:48;;;;;;;9.40;1.65;;;11.30;74.90;;;;;;6310347;22;20078;-76
2023/09/01 17:59:18;;;;;;;3.97;1.48;;;11.30;75.40;;;;;;6337835;22;20003;-76
2023/09/01 18:01:49;;;;;;;5.25;1.35;;;11.30;74.70;;;;;;6338554;22;20002;-76
2023/09/01 18:04:18;;;;;;;6.15;1.65;;;11.20;74.70;;;;;;6336908;22;20024;-76
2023/09/01 18:06:46;;;;;;;7.03;1.65;;;11.30;74.40;;;;;;6310685;22;20018;-76
2023/09/01 18:09:13;;;;;;;5.03;1.58;;;11.30;74.00;;;;;;6310566;22;20051;-77
2023/09/01 18:11:40;;;;;;;10.60;2.05;;;11.30;74.10;;;;;;6338319;22;20003;-76
2023/09/01 18:14:08;;;;;;;10.27;2.03;;;11.30;73.80;;;;;;6337074;22;20029;-76
2023/09/01 18:16:36;;;;;;;12.98;2.25;;;11.30;74.20;;;;;;6337948;22;19995;-76
2023/09/01 18:19:03;;;;;;;5.28;1.50;;;11.30;74.10;;;;;;6310260;22;20032;-76
2023/09/01 18:21:34;;;;;;;7.78;1.58;;;11.20;74.30;;;;;;6337385;22;20081;-76
2023/09/01 18:24:15;;;;;;;7.80;1.85;;;11.20;73.90;;;;;;6309609;22;20441;-76
2023/09/01 18:26:42;;;;;;;8.15;1.98;;;11.20;73.80;;;;;;6310153;22;20018;-76
2023/09/01 18:29:23;;;;;;;8.25;1.60;;;11.20;74.00;;;;;;6310416;22;20022;-76
2023/09/01 18:31:51;;;;;;;;;;;11.20;73.90;;;;;;6311433;22;20002;-76
2023/09/01 18:34:18;;;;;;;5.70;1.52;;;11.10;73.80;;;;;;6337771;22;20332;-76
2023/09/01 18:36:45;;;;;;;5.25;1.60;;;11.10;74.10;;;;;;6309923;22;19999;-76
2023/09/01 18:39:13;;;;;;;5.82;1.58;;;11.10;74.70;;;;;;6309710;22;20009;-76
2023/09/01 18:41:43;;;;;;;6.07;1.52;;;11.10;75.00;;;;;;6337569;22;19999;-76
2023/09/01 18:44:11;;;;;;;6.88;1.70;;;11.00;75.30;;;;;;6310757;22;20009;-76
2023/09/01 18:46:39;;;;;;;6.95;1.58;;;11.00;76.30;;;;;;6310406;22;20018;-76
2023/09/01 18:49:10;;;;;;;10.75;1.98;;;11.00;75.90;;;;;;6337357;22;20045;-76
2023/09/01 18:51:38;;;;;;;6.93;1.98;;;10.90;76.20;;;;;;6336771;22;19995;-76
2023/09/01 18:54:21;;;;;;;6.63;1.67;;;10.80;76.50;;;;;;6308964;22;19999;-76
2023/09/01 18:56:49;;;;;;;7.93;1.50;;;10.90;76.00;;;;;;6337962;22;20424;-77
2023/09/01 18:59:20;;;;;;;8.15;1.50;;;10.90;76.20;;;;;;6337697;22;20022;-76
2023/09/01 19:01:47;;;;;;;6.28;1.50;;;10.80;75.40;;;;;;6306242;22;20011;-82
2023/09/01 19:04:14;;;;;;;11.57;1.85;;;10.90;74.10;;;;;;6334889;22;20362;-85
2023/09/01 19:06:45;;;;;;;3.70;1.50;;;10.90;73.90;;;;;;6307034;22;20093;-79
2023/09/01 19:09:12;;;;;;;3.97;1.40;;;10.90;73.60;;;;;;6306485;22;20003;-80
2023/09/01 19:11:39;;;;;;;6.57;1.67;;;11.00;72.90;;;;;;6306806;22;20368;-80
2023/09/01 19:14:09;;;;;;;7.55;1.38;;;10.90;72.80;;;;;;6333244;22;20056;-82
2023/09/01 19:16:37;;;;;;;6.30;1.40;;;11.00;72.00;;;;;;6307667;22;20062;-81
2023/09/01 19:19:04;;;;;;;4.45;1.50;;;11.00;72.10;;;;;;6334161;22;20007;-82
2023/09/01 19:21:42;;;;;;;5.10;1.48;;;11.10;71.90;;;;;;6307494;22;20353;-81
2023/09/01 19:24:09;;;;;;;7.50;1.10;;;11.10;71.70;;;;;;6333983;22;20011;-81
2023/09/01 19:26:36;;;;;;;5.85;1.40;;;11.10;71.40;;;;;;6333762;22;20003;-79
2023/09/01 19:29:14;;;;;;;4.00;1.20;;;11.10;71.30;;;;;;6334050;22;20038;-83
2023/09/01 19:31:46;;;;;;;6.68;1.30;;;11.10;71.20;;;;;;6305113;22;20007;-79
2023/09/01 19:34:15;;;;;;;8.90;1.42;;;11.00;71.60;;;;;;6306128;22;20010;-79